sensor_id;sensor_type;location;lat;lon;timestamp;P1;durP1;ratioP1;P2;durP2;ratioP2
23001;SDS011;11667;51.706;4.856;2023-02-13T00:01:26;52.62;;;23.18;;
23001;SDS011;11667;51.706;4.856;2023-02-13T00:03:55;53.60;;;22.80;;
23001;SDS011;11667;51.706;4.856;2023-02-13T00:06:25;55.17;;;23.80;;
23001;SDS011;11667;51.706;4.856;2023-02-13T00:08:54;47.27;;;22.15;;
23001;SDS011;11667;51.706;4.856;2023-02-13T00:11:24;50.75;;;22.25;;
23001;SDS011;11667;51.706;4.856;2023-02-13T00:13:53;56.35;;;23.85;;
23001;SDS011;11667;51.706;4.856;2023-02-13T00:16:22;54.55;;;23.02;;
23001;SDS011;11667;51.706;4.856;2023-02-13T00:18:52;53.92;;;23.15;;
23001;SDS011;11667;51.706;4.856;2023-02-13T00:21:21;51.23;;;22.67;;
23001;SDS011;11667;51.706;4.856;2023-02-13T00:23:50;56.35;;;23.50;;
23001;SDS011;11667;51.706;4.856;2023-02-13T00:26:19;56.55;;;24.05;;
23001;SDS011;11667;51.706;4.856;2023-02-13T00:28:49;51.85;;;23.15;;
23001;SDS011;11667;51.706;4.856;2023-02-13T00:31:19;54.08;;;23.32;;
23001;SDS011;11667;51.706;4.856;2023-02-13T00:33:49;52.20;;;22.60;;
23001;SDS011;11667;51.706;4.856;2023-02-13T00:36:19;54.00;;;23.35;;
23001;SDS011;11667;51.706;4.856;2023-02-13T00:38:50;50.90;;;22.95;;
23001;SDS011;11667;51.706;4.856;2023-02-13T00:41:20;50.30;;;22.93;;
23001;SDS011;11667;51.706;4.856;2023-02-13T00:43:50;55.23;;;24.35;;
23001;SDS011;11667;51.706;4.856;2023-02-13T00:46:19;53.73;;;23.55;;
23001;SDS011;11667;51.706;4.856;2023-02-13T00:48:50;56.75;;;24.30;;
23001;SDS011;11667;51.706;4.856;2023-02-13T00:51:19;51.80;;;23.35;;
23001;SDS011;11667;51.706;4.856;2023-02-13T00:53:50;52.78;;;22.60;;
23001;SDS011;11667;51.706;4.856;2023-02-13T00:56:19;54.20;;;23.75;;
23001;SDS011;11667;51.706;4.856;2023-02-13T00:58:48;55.20;;;24.18;;
23001;SDS011;11667;51.706;4.856;2023-02-13T01:01:18;51.30;;;23.27;;
23001;SDS011;11667;51.706;4.856;2023-02-13T01:03:47;55.03;;;22.70;;
23001;SDS011;11667;51.706;4.856;2023-02-13T01:06:16;54.00;;;23.02;;
23001;SDS011;11667;51.706;4.856;2023-02-13T01:08:46;54.53;;;23.42;;
23001;SDS011;11667;51.706;4.856;2023-02-13T01:11:15;52.33;;;24.00;;
23001;SDS011;11667;51.706;4.856;2023-02-13T01:13:45;52.27;;;22.62;;
23001;SDS011;11667;51.706;4.856;2023-02-13T01:16:17;53.38;;;22.87;;
23001;SDS011;11667;51.706;4.856;2023-02-13T01:18:46;53.63;;;23.25;;
23001;SDS011;11667;51.706;4.856;2023-02-13T01:21:17;52.95;;;23.42;;
23001;SDS011;11667;51.706;4.856;2023-02-13T01:23:47;52.93;;;23.25;;
23001;SDS011;11667;51.706;4.856;2023-02-13T01:26:20;56.28;;;24.98;;
23001;SDS011;11667;51.706;4.856;2023-02-13T01:28:51;52.70;;;22.58;;
23001;SDS011;11667;51.706;4.856;2023-02-13T01:31:21;52.65;;;22.15;;
23001;SDS011;11667;51.706;4.856;2023-02-13T01:33:51;52.43;;;23.20;;
23001;SDS011;11667;51.706;4.856;2023-02-13T01:36:22;52.50;;;22.65;;
23001;SDS011;11667;51.706;4.856;2023-02-13T01:38:53;53.52;;;22.62;;
23001;SDS011;11667;51.706;4.856;2023-02-13T01:41:25;56.53;;;22.13;;
23001;SDS011;11667;51.706;4.856;2023-02-13T01:43:56;56.05;;;23.12;;
23001;SDS011;11667;51.706;4.856;2023-02-13T01:46:37;54.18;;;23.07;;
23001;SDS011;11667;51.706;4.856;2023-02-13T01:49:10;55.33;;;23.00;;
23001;SDS011;11667;51.706;4.856;2023-02-13T01:51:41;52.78;;;22.10;;
23001;SDS011;11667;51.706;4.856;2023-02-13T01:54:13;54.35;;;23.45;;
23001;SDS011;11667;51.706;4.856;2023-02-13T01:56:48;57.60;;;23.62;;
23001;SDS011;11667;51.706;4.856;2023-02-13T01:59:21;57.23;;;22.77;;
23001;SDS011;11667;51.706;4.856;2023-02-13T02:01:54;54.18;;;22.60;;
23001;SDS011;11667;51.706;4.856;2023-02-13T02:04:26;57.45;;;23.60;;
23001;SDS011;11667;51.706;4.856;2023-02-13T02:07:03;55.83;;;22.67;;
23001;SDS011;11667;51.706;4.856;2023-02-13T02:09:36;55.08;;;22.75;;
23001;SDS011;11667;51.706;4.856;2023-02-13T02:14:49;53.43;;;21.97;;
23001;SDS011;11667;51.706;4.856;2023-02-13T02:17:21;55.48;;;22.22;;
23001;SDS011;11667;51.706;4.856;2023-02-13T02:28:29;59.50;;;23.18;;
23001;SDS011;11667;51.706;4.856;2023-02-13T02:34:02;59.35;;;22.80;;
23001;SDS011;11667;51.706;4.856;2023-02-13T02:36:47;59.33;;;23.73;;
23001;SDS011;11667;51.706;4.856;2023-02-13T02:39:21;56.68;;;22.82;;
23001;SDS011;11667;51.706;4.856;2023-02-13T02:41:53;62.75;;;23.98;;
23001;SDS011;11667;51.706;4.856;2023-02-13T02:44:31;60.38;;;23.27;;
23001;SDS011;11667;51.706;4.856;2023-02-13T02:47:07;60.85;;;24.18;;
23001;SDS011;11667;51.706;4.856;2023-02-13T02:50:00;60.65;;;24.45;;
23001;SDS011;11667;51.706;4.856;2023-02-13T02:52:42;56.10;;;23.60;;
23001;SDS011;11667;51.706;4.856;2023-02-13T02:58:37;61.35;;;23.92;;
23001;SDS011;11667;51.706;4.856;2023-02-13T03:01:10;59.40;;;23.87;;
23001;SDS011;11667;51.706;4.856;2023-02-13T03:03:59;62.50;;;24.37;;
23001;SDS011;11667;51.706;4.856;2023-02-13T03:06:59;62.88;;;24.07;;
23001;SDS011;11667;51.706;4.856;2023-02-13T03:09:29;61.48;;;24.12;;
23001;SDS011;11667;51.706;4.856;2023-02-13T03:12:16;63.78;;;24.52;;
23001;SDS011;11667;51.706;4.856;2023-02-13T03:15:04;66.25;;;25.80;;
23001;SDS011;11667;51.706;4.856;2023-02-13T03:17:34;62.48;;;24.40;;
23001;SDS011;11667;51.706;4.856;2023-02-13T03:20:31;65.57;;;24.15;;
23001;SDS011;11667;51.706;4.856;2023-02-13T03:23:35;60.43;;;25.02;;
23001;SDS011;11667;51.706;4.856;2023-02-13T03:26:17;66.07;;;25.08;;
23001;SDS011;11667;51.706;4.856;2023-02-13T03:28:46;66.62;;;25.85;;
23001;SDS011;11667;51.706;4.856;2023-02-13T03:34:09;63.73;;;25.55;;
23001;SDS011;11667;51.706;4.856;2023-02-13T03:37:00;62.27;;;24.10;;
23001;SDS011;11667;51.706;4.856;2023-02-13T03:39:51;64.37;;;25.23;;
23001;SDS011;11667;51.706;4.856;2023-02-13T03:45:07;70.10;;;26.07;;
23001;SDS011;11667;51.706;4.856;2023-02-13T03:48:02;63.92;;;25.08;;
23001;SDS011;11667;51.706;4.856;2023-02-13T03:50:38;67.80;;;25.25;;
23001;SDS011;11667;51.706;4.856;2023-02-13T03:53:09;67.05;;;24.80;;
23001;SDS011;11667;51.706;4.856;2023-02-13T03:55:41;74.30;;;26.30;;
23001;SDS011;11667;51.706;4.856;2023-02-13T03:58:32;65.42;;;24.65;;
23001;SDS011;11667;51.706;4.856;2023-02-13T04:01:21;64.75;;;25.57;;
23001;SDS011;11667;51.706;4.856;2023-02-13T04:09:28;71.22;;;26.75;;
23001;SDS011;11667;51.706;4.856;2023-02-13T04:12:05;69.90;;;26.57;;
23001;SDS011;11667;51.706;4.856;2023-02-13T04:15:02;70.75;;;26.85;;
23001;SDS011;11667;51.706;4.856;2023-02-13T04:17:38;74.58;;;28.12;;
23001;SDS011;11667;51.706;4.856;2023-02-13T04:20:10;72.00;;;27.62;;
23001;SDS011;11667;51.706;4.856;2023-02-13T04:22:40;74.53;;;28.27;;
23001;SDS011;11667;51.706;4.856;2023-02-13T04:25:11;70.80;;;28.20;;
23001;SDS011;11667;51.706;4.856;2023-02-13T04:27:43;83.03;;;29.97;;
23001;SDS011;11667;51.706;4.856;2023-02-13T04:30:12;74.75;;;28.35;;
23001;SDS011;11667;51.706;4.856;2023-02-13T04:32:42;75.28;;;27.65;;
23001;SDS011;11667;51.706;4.856;2023-02-13T04:35:12;75.32;;;26.75;;
23001;SDS011;11667;51.706;4.856;2023-02-13T04:37:41;78.70;;;29.40;;
23001;SDS011;11667;51.706;4.856;2023-02-13T04:40:11;82.70;;;29.70;;
23001;SDS011;11667;51.706;4.856;2023-02-13T04:42:40;76.60;;;29.07;;
23001;SDS011;11667;51.706;4.856;2023-02-13T04:45:10;82.80;;;29.05;;
23001;SDS011;11667;51.706;4.856;2023-02-13T04:47:39;80.32;;;29.35;;
23001;SDS011;11667;51.706;4.856;2023-02-13T04:50:09;78.95;;;28.42;;
23001;SDS011;11667;51.706;4.856;2023-02-13T04:52:38;81.57;;;28.55;;
23001;SDS011;11667;51.706;4.856;2023-02-13T04:55:08;78.87;;;29.02;;
23001;SDS011;11667;51.706;4.856;2023-02-13T04:57:37;88.00;;;30.02;;
23001;SDS011;11667;51.706;4.856;2023-02-13T05:00:07;83.97;;;30.37;;
23001;SDS011;11667;51.706;4.856;2023-02-13T05:02:37;88.87;;;31.20;;
23001;SDS011;11667;51.706;4.856;2023-02-13T05:05:06;86.92;;;29.48;;
23001;SDS011;11667;51.706;4.856;2023-02-13T05:07:36;90.70;;;30.02;;
23001;SDS011;11667;51.706;4.856;2023-02-13T05:10:05;91.20;;;31.52;;
23001;SDS011;11667;51.706;4.856;2023-02-13T05:12:35;91.45;;;30.25;;
23001;SDS011;11667;51.706;4.856;2023-02-13T05:15:05;95.72;;;31.73;;
23001;SDS011;11667;51.706;4.856;2023-02-13T05:17:35;98.45;;;31.50;;
23001;SDS011;11667;51.706;4.856;2023-02-13T05:20:05;94.55;;;31.30;;
23001;SDS011;11667;51.706;4.856;2023-02-13T05:22:35;98.37;;;32.80;;
23001;SDS011;11667;51.706;4.856;2023-02-13T05:25:22;96.32;;;33.10;;
23001;SDS011;11667;51.706;4.856;2023-02-13T05:27:51;103.12;;;33.88;;
23001;SDS011;11667;51.706;4.856;2023-02-13T05:30:21;102.38;;;32.83;;
23001;SDS011;11667;51.706;4.856;2023-02-13T05:32:51;97.67;;;32.30;;
23001;SDS011;11667;51.706;4.856;2023-02-13T05:35:21;102.72;;;33.28;;
23001;SDS011;11667;51.706;4.856;2023-02-13T05:37:52;99.50;;;32.65;;
23001;SDS011;11667;51.706;4.856;2023-02-13T05:40:21;105.17;;;33.38;;
23001;SDS011;11667;51.706;4.856;2023-02-13T05:42:51;104.85;;;34.00;;
23001;SDS011;11667;51.706;4.856;2023-02-13T05:45:22;107.95;;;33.63;;
23001;SDS011;11667;51.706;4.856;2023-02-13T05:47:51;101.33;;;33.70;;
23001;SDS011;11667;51.706;4.856;2023-02-13T05:50:20;111.45;;;34.65;;
23001;SDS011;11667;51.706;4.856;2023-02-13T05:52:50;114.42;;;35.68;;
23001;SDS011;11667;51.706;4.856;2023-02-13T05:55:19;108.60;;;34.53;;
23001;SDS011;11667;51.706;4.856;2023-02-13T05:57:48;111.55;;;36.98;;
23001;SDS011;11667;51.706;4.856;2023-02-13T06:00:19;121.47;;;39.78;;
23001;SDS011;11667;51.706;4.856;2023-02-13T06:02:49;121.15;;;36.60;;
23001;SDS011;11667;51.706;4.856;2023-02-13T06:05:19;125.02;;;37.58;;
23001;SDS011;11667;51.706;4.856;2023-02-13T06:07:49;117.55;;;36.63;;
23001;SDS011;11667;51.706;4.856;2023-02-13T06:10:18;119.72;;;36.00;;
23001;SDS011;11667;51.706;4.856;2023-02-13T06:12:48;117.67;;;36.40;;
23001;SDS011;11667;51.706;4.856;2023-02-13T06:15:17;131.10;;;35.92;;
23001;SDS011;11667;51.706;4.856;2023-02-13T06:17:47;120.28;;;36.25;;
23001;SDS011;11667;51.706;4.856;2023-02-13T06:20:17;117.05;;;34.98;;
23001;SDS011;11667;51.706;4.856;2023-02-13T06:22:47;130.97;;;38.02;;
23001;SDS011;11667;51.706;4.856;2023-02-13T06:25:17;129.40;;;38.48;;
23001;SDS011;11667;51.706;4.856;2023-02-13T06:27:47;133.45;;;38.83;;
23001;SDS011;11667;51.706;4.856;2023-02-13T06:30:17;143.78;;;41.15;;
23001;SDS011;11667;51.706;4.856;2023-02-13T06:32:47;143.68;;;40.20;;
23001;SDS011;11667;51.706;4.856;2023-02-13T06:35:16;130.35;;;39.13;;
23001;SDS011;11667;51.706;4.856;2023-02-13T06:37:45;142.40;;;40.08;;
23001;SDS011;11667;51.706;4.856;2023-02-13T06:40:15;134.80;;;38.60;;
23001;SDS011;11667;51.706;4.856;2023-02-13T06:42:45;139.97;;;39.05;;
23001;SDS011;11667;51.706;4.856;2023-02-13T06:45:14;135.57;;;40.58;;
23001;SDS011;11667;51.706;4.856;2023-02-13T06:47:45;136.95;;;39.58;;
23001;SDS011;11667;51.706;4.856;2023-02-13T06:50:16;140.43;;;40.90;;
23001;SDS011;11667;51.706;4.856;2023-02-13T06:52:51;151.50;;;41.68;;
23001;SDS011;11667;51.706;4.856;2023-02-13T06:55:17;157.45;;;41.25;;
23001;SDS011;11667;51.706;4.856;2023-02-13T06:57:47;151.02;;;41.70;;
23001;SDS011;11667;51.706;4.856;2023-02-13T07:00:17;159.80;;;41.13;;
23001;SDS011;11667;51.706;4.856;2023-02-13T07:02:47;165.80;;;42.05;;
23001;SDS011;11667;51.706;4.856;2023-02-13T07:05:17;153.80;;;41.77;;
23001;SDS011;11667;51.706;4.856;2023-02-13T07:07:46;162.75;;;41.63;;
23001;SDS011;11667;51.706;4.856;2023-02-13T07:10:15;163.37;;;42.23;;
23001;SDS011;11667;51.706;4.856;2023-02-13T07:12:45;164.07;;;42.53;;
23001;SDS011;11667;51.706;4.856;2023-02-13T07:15:16;162.90;;;42.85;;
23001;SDS011;11667;51.706;4.856;2023-02-13T07:17:46;169.70;;;43.17;;
23001;SDS011;11667;51.706;4.856;2023-02-13T07:20:15;160.63;;;43.33;;
23001;SDS011;11667;51.706;4.856;2023-02-13T07:22:45;164.60;;;42.00;;
23001;SDS011;11667;51.706;4.856;2023-02-13T07:25:14;165.10;;;43.87;;
23001;SDS011;11667;51.706;4.856;2023-02-13T07:27:44;156.45;;;44.20;;
23001;SDS011;11667;51.706;4.856;2023-02-13T07:30:13;174.53;;;44.18;;
23001;SDS011;11667;51.706;4.856;2023-02-13T07:32:42;176.05;;;44.42;;
23001;SDS011;11667;51.706;4.856;2023-02-13T07:35:12;155.18;;;42.80;;
23001;SDS011;11667;51.706;4.856;2023-02-13T07:37:41;158.90;;;40.50;;
23001;SDS011;11667;51.706;4.856;2023-02-13T07:40:11;162.03;;;43.48;;
23001;SDS011;11667;51.706;4.856;2023-02-13T07:42:40;165.65;;;45.75;;
23001;SDS011;11667;51.706;4.856;2023-02-13T07:45:10;178.23;;;46.10;;
23001;SDS011;11667;51.706;4.856;2023-02-13T07:47:39;163.55;;;46.20;;
23001;SDS011;11667;51.706;4.856;2023-02-13T07:50:10;181.12;;;48.42;;
23001;SDS011;11667;51.706;4.856;2023-02-13T07:52:39;184.80;;;47.83;;
23001;SDS011;11667;51.706;4.856;2023-02-13T07:55:09;177.82;;;48.40;;
23001;SDS011;11667;51.706;4.856;2023-02-13T07:57:38;160.20;;;46.65;;
23001;SDS011;11667;51.706;4.856;2023-02-13T08:00:08;172.10;;;48.87;;
23001;SDS011;11667;51.706;4.856;2023-02-13T08:02:40;173.62;;;47.75;;
23001;SDS011;11667;51.706;4.856;2023-02-13T08:05:09;179.78;;;49.38;;
23001;SDS011;11667;51.706;4.856;2023-02-13T08:07:39;186.00;;;51.02;;
23001;SDS011;11667;51.706;4.856;2023-02-13T08:10:10;180.32;;;49.83;;
23001;SDS011;11667;51.706;4.856;2023-02-13T08:12:57;170.92;;;50.65;;
23001;SDS011;11667;51.706;4.856;2023-02-13T08:15:27;167.65;;;49.08;;
23001;SDS011;11667;51.706;4.856;2023-02-13T08:17:56;159.12;;;49.38;;
23001;SDS011;11667;51.706;4.856;2023-02-13T08:20:25;163.15;;;49.08;;
23001;SDS011;11667;51.706;4.856;2023-02-13T08:23:00;147.98;;;49.38;;
23001;SDS011;11667;51.706;4.856;2023-02-13T08:25:27;150.82;;;49.35;;
23001;SDS011;11667;51.706;4.856;2023-02-13T08:27:57;162.97;;;50.65;;
23001;SDS011;11667;51.706;4.856;2023-02-13T08:30:27;145.40;;;47.58;;
23001;SDS011;11667;51.706;4.856;2023-02-13T08:32:56;141.60;;;47.90;;
23001;SDS011;11667;51.706;4.856;2023-02-13T08:35:26;134.90;;;45.70;;
23001;SDS011;11667;51.706;4.856;2023-02-13T08:38:00;120.40;;;43.38;;
23001;SDS011;11667;51.706;4.856;2023-02-13T08:40:31;111.32;;;42.20;;
23001;SDS011;11667;51.706;4.856;2023-02-13T08:43:01;112.00;;;42.30;;
23001;SDS011;11667;51.706;4.856;2023-02-13T08:45:32;102.55;;;40.00;;
23001;SDS011;11667;51.706;4.856;2023-02-13T08:48:01;93.22;;;39.20;;
23001;SDS011;11667;51.706;4.856;2023-02-13T08:50:31;84.72;;;37.08;;
23001;SDS011;11667;51.706;4.856;2023-02-13T08:53:02;82.08;;;35.40;;
23001;SDS011;11667;51.706;4.856;2023-02-13T08:55:32;81.32;;;34.18;;
23001;SDS011;11667;51.706;4.856;2023-02-13T08:58:01;75.60;;;33.45;;
23001;SDS011;11667;51.706;4.856;2023-02-13T09:00:31;75.30;;;32.45;;
23001;SDS011;11667;51.706;4.856;2023-02-13T09:03:01;67.20;;;31.10;;
23001;SDS011;11667;51.706;4.856;2023-02-13T09:05:31;64.60;;;29.35;;
23001;SDS011;11667;51.706;4.856;2023-02-13T09:08:00;57.00;;;28.00;;
23001;SDS011;11667;51.706;4.856;2023-02-13T09:10:30;57.03;;;25.80;;
23001;SDS011;11667;51.706;4.856;2023-02-13T09:13:00;50.73;;;25.20;;
23001;SDS011;11667;51.706;4.856;2023-02-13T09:15:29;46.95;;;23.40;;
23001;SDS011;11667;51.706;4.856;2023-02-13T09:17:59;48.42;;;24.32;;
23001;SDS011;11667;51.706;4.856;2023-02-13T09:20:28;46.45;;;24.37;;
23001;SDS011;11667;51.706;4.856;2023-02-13T09:22:58;42.83;;;23.52;;
23001;SDS011;11667;51.706;4.856;2023-02-13T09:25:27;46.63;;;24.40;;
23001;SDS011;11667;51.706;4.856;2023-02-13T09:27:58;41.77;;;22.80;;
23001;SDS011;11667;51.706;4.856;2023-02-13T09:30:27;41.35;;;22.90;;
23001;SDS011;11667;51.706;4.856;2023-02-13T09:32:56;42.33;;;24.18;;
23001;SDS011;11667;51.706;4.856;2023-02-13T09:35:26;41.08;;;23.27;;
23001;SDS011;11667;51.706;4.856;2023-02-13T09:37:56;40.23;;;23.18;;
23001;SDS011;11667;51.706;4.856;2023-02-13T09:40:33;39.25;;;22.65;;
23001;SDS011;11667;51.706;4.856;2023-02-13T09:45:46;39.40;;;22.90;;
23001;SDS011;11667;51.706;4.856;2023-02-13T09:48:39;40.03;;;22.30;;
23001;SDS011;11667;51.706;4.856;2023-02-13T09:50:58;37.70;;;21.97;;
23001;SDS011;11667;51.706;4.856;2023-02-13T09:53:27;38.83;;;22.73;;
23001;SDS011;11667;51.706;4.856;2023-02-13T09:58:47;37.80;;;22.27;;
23001;SDS011;11667;51.706;4.856;2023-02-13T10:01:33;37.98;;;22.55;;
23001;SDS011;11667;51.706;4.856;2023-02-13T10:04:11;39.42;;;22.25;;
23001;SDS011;11667;51.706;4.856;2023-02-13T10:06:59;34.85;;;20.85;;
23001;SDS011;11667;51.706;4.856;2023-02-13T10:12:24;35.65;;;21.52;;
23001;SDS011;11667;51.706;4.856;2023-02-13T10:15:05;34.80;;;19.57;;
23001;SDS011;11667;51.706;4.856;2023-02-13T10:17:37;32.38;;;19.57;;
23001;SDS011;11667;51.706;4.856;2023-02-13T10:22:58;30.48;;;18.98;;
23001;SDS011;11667;51.706;4.856;2023-02-13T10:25:31;32.42;;;19.98;;
23001;SDS011;11667;51.706;4.856;2023-02-13T10:28:06;31.10;;;19.25;;
23001;SDS011;11667;51.706;4.856;2023-02-13T10:30:45;31.70;;;19.73;;
23001;SDS011;11667;51.706;4.856;2023-02-13T10:38:41;29.10;;;17.60;;
23001;SDS011;11667;51.706;4.856;2023-02-13T10:52:17;26.75;;;16.90;;
23001;SDS011;11667;51.706;4.856;2023-02-13T10:57:34;27.32;;;17.37;;
23001;SDS011;11667;51.706;4.856;2023-02-13T11:00:09;28.73;;;17.92;;
23001;SDS011;11667;51.706;4.856;2023-02-13T11:02:40;25.82;;;16.48;;
23001;SDS011;11667;51.706;4.856;2023-02-13T11:05:22;26.65;;;17.20;;
23001;SDS011;11667;51.706;4.856;2023-02-13T11:07:48;27.73;;;17.20;;
23001;SDS011;11667;51.706;4.856;2023-02-13T11:10:19;29.67;;;17.85;;
23001;SDS011;11667;51.706;4.856;2023-02-13T11:15:26;25.77;;;16.02;;
23001;SDS011;11667;51.706;4.856;2023-02-13T11:18:02;26.97;;;15.98;;
23001;SDS011;11667;51.706;4.856;2023-02-13T11:20:39;25.43;;;15.63;;
23001;SDS011;11667;51.706;4.856;2023-02-13T11:26:06;23.77;;;15.78;;
23001;SDS011;11667;51.706;4.856;2023-02-13T11:28:51;25.70;;;15.55;;
23001;SDS011;11667;51.706;4.856;2023-02-13T11:31:29;24.50;;;15.85;;
23001;SDS011;11667;51.706;4.856;2023-02-13T11:34:16;24.45;;;15.40;;
23001;SDS011;11667;51.706;4.856;2023-02-13T11:36:53;22.60;;;15.25;;
23001;SDS011;11667;51.706;4.856;2023-02-13T11:39:25;23.32;;;15.13;;
23001;SDS011;11667;51.706;4.856;2023-02-13T11:41:54;22.58;;;15.03;;
23001;SDS011;11667;51.706;4.856;2023-02-13T11:44:24;24.25;;;15.53;;
23001;SDS011;11667;51.706;4.856;2023-02-13T11:46:57;23.30;;;14.05;;
23001;SDS011;11667;51.706;4.856;2023-02-13T11:49:28;22.40;;;14.65;;
23001;SDS011;11667;51.706;4.856;2023-02-13T11:52:03;23.50;;;14.80;;
23001;SDS011;11667;51.706;4.856;2023-02-13T11:54:43;23.83;;;14.13;;
23001;SDS011;11667;51.706;4.856;2023-02-13T11:59:51;21.75;;;14.25;;
23001;SDS011;11667;51.706;4.856;2023-02-13T12:02:21;18.67;;;12.50;;
23001;SDS011;11667;51.706;4.856;2023-02-13T12:04:53;21.23;;;13.18;;
23001;SDS011;11667;51.706;4.856;2023-02-13T12:07:28;18.75;;;12.23;;
23001;SDS011;11667;51.706;4.856;2023-02-13T12:10:04;18.62;;;12.90;;
23001;SDS011;11667;51.706;4.856;2023-02-13T12:12:38;18.50;;;12.37;;
23001;SDS011;11667;51.706;4.856;2023-02-13T12:15:23;21.60;;;12.88;;
23001;SDS011;11667;51.706;4.856;2023-02-13T12:17:56;19.92;;;12.73;;
23001;SDS011;11667;51.706;4.856;2023-02-13T12:20:22;19.60;;;12.80;;
23001;SDS011;11667;51.706;4.856;2023-02-13T12:23:06;22.02;;;13.40;;
23001;SDS011;11667;51.706;4.856;2023-02-13T12:28:45;22.65;;;14.18;;
23001;SDS011;11667;51.706;4.856;2023-02-13T12:31:24;24.12;;;14.53;;
23001;SDS011;11667;51.706;4.856;2023-02-13T12:40:22;24.23;;;15.18;;
23001;SDS011;11667;51.706;4.856;2023-02-13T12:46:00;24.87;;;16.10;;
23001;SDS011;11667;51.706;4.856;2023-02-13T12:53:45;27.70;;;17.35;;
23001;SDS011;11667;51.706;4.856;2023-02-13T12:59:08;25.90;;;16.45;;
23001;SDS011;11667;51.706;4.856;2023-02-13T13:02:02;25.45;;;15.65;;
23001;SDS011;11667;51.706;4.856;2023-02-13T13:04:46;25.17;;;15.08;;
23001;SDS011;11667;51.706;4.856;2023-02-13T13:10:23;22.10;;;14.33;;
23001;SDS011;11667;51.706;4.856;2023-02-13T13:21:16;23.55;;;13.53;;
23001;SDS011;11667;51.706;4.856;2023-02-13T13:26:48;23.42;;;13.88;;
23001;SDS011;11667;51.706;4.856;2023-02-13T13:29:35;19.67;;;12.93;;
23001;SDS011;11667;51.706;4.856;2023-02-13T13:32:22;23.52;;;13.65;;
23001;SDS011;11667;51.706;4.856;2023-02-13T13:34:52;23.65;;;14.15;;
23001;SDS011;11667;51.706;4.856;2023-02-13T13:37:35;23.95;;;13.85;;
23001;SDS011;11667;51.706;4.856;2023-02-13T13:40:19;23.98;;;14.53;;
23001;SDS011;11667;51.706;4.856;2023-02-13T13:51:11;24.57;;;14.47;;
23001;SDS011;11667;51.706;4.856;2023-02-13T14:07:50;21.90;;;12.82;;
23001;SDS011;11667;51.706;4.856;2023-02-13T14:23:26;21.48;;;12.70;;
23001;SDS011;11667;51.706;4.856;2023-02-13T14:34:06;23.67;;;13.83;;
23001;SDS011;11667;51.706;4.856;2023-02-13T14:36:34;23.67;;;13.72;;
23001;SDS011;11667;51.706;4.856;2023-02-13T14:44:23;23.47;;;13.08;;
23001;SDS011;11667;51.706;4.856;2023-02-13T14:46:55;19.95;;;12.23;;
23001;SDS011;11667;51.706;4.856;2023-02-13T14:49:25;21.62;;;12.35;;
23001;SDS011;11667;51.706;4.856;2023-02-13T14:52:04;21.60;;;12.55;;
23001;SDS011;11667;51.706;4.856;2023-02-13T14:57:30;19.82;;;11.60;;
23001;SDS011;11667;51.706;4.856;2023-02-13T15:02:16;22.25;;;12.05;;
23001;SDS011;11667;51.706;4.856;2023-02-13T15:05:00;19.42;;;11.10;;
23001;SDS011;11667;51.706;4.856;2023-02-13T15:07:25;18.73;;;10.95;;
23001;SDS011;11667;51.706;4.856;2023-02-13T15:12:31;21.77;;;11.70;;
23001;SDS011;11667;51.706;4.856;2023-02-13T15:15:20;20.57;;;11.45;;
23001;SDS011;11667;51.706;4.856;2023-02-13T15:17:38;22.30;;;13.15;;
23001;SDS011;11667;51.706;4.856;2023-02-13T15:20:24;20.25;;;12.18;;
23001;SDS011;11667;51.706;4.856;2023-02-13T15:22:55;22.85;;;12.25;;
23001;SDS011;11667;51.706;4.856;2023-02-13T15:25:30;23.75;;;13.55;;
23001;SDS011;11667;51.706;4.856;2023-02-13T15:28:06;25.27;;;13.80;;
23001;SDS011;11667;51.706;4.856;2023-02-13T15:30:36;25.57;;;13.70;;
23001;SDS011;11667;51.706;4.856;2023-02-13T15:35:44;26.68;;;14.35;;
23001;SDS011;11667;51.706;4.856;2023-02-13T15:38:23;30.85;;;15.58;;
23001;SDS011;11667;51.706;4.856;2023-02-13T15:40:50;29.07;;;15.55;;
23001;SDS011;11667;51.706;4.856;2023-02-13T15:43:32;28.77;;;15.25;;
23001;SDS011;11667;51.706;4.856;2023-02-13T15:46:04;33.02;;;16.12;;
23001;SDS011;11667;51.706;4.856;2023-02-13T15:48:36;24.60;;;14.98;;
23001;SDS011;11667;51.706;4.856;2023-02-13T15:51:05;27.02;;;15.32;;
23001;SDS011;11667;51.706;4.856;2023-02-13T15:53:35;29.65;;;16.15;;
23001;SDS011;11667;51.706;4.856;2023-02-13T15:56:04;30.20;;;16.42;;
23001;SDS011;11667;51.706;4.856;2023-02-13T15:58:34;27.65;;;15.48;;
23001;SDS011;11667;51.706;4.856;2023-02-13T16:01:05;28.70;;;15.60;;
23001;SDS011;11667;51.706;4.856;2023-02-13T16:03:35;31.60;;;16.15;;
23001;SDS011;11667;51.706;4.856;2023-02-13T16:06:05;27.95;;;15.78;;
23001;SDS011;11667;51.706;4.856;2023-02-13T16:08:36;29.52;;;16.12;;
23001;SDS011;11667;51.706;4.856;2023-02-13T16:16:55;29.37;;;16.05;;
23001;SDS011;11667;51.706;4.856;2023-02-13T16:19:36;28.35;;;15.08;;
23001;SDS011;11667;51.706;4.856;2023-02-13T16:22:36;27.50;;;14.60;;
23001;SDS011;11667;51.706;4.856;2023-02-13T16:25:17;27.25;;;14.78;;
23001;SDS011;11667;51.706;4.856;2023-02-13T16:27:49;30.02;;;15.30;;
23001;SDS011;11667;51.706;4.856;2023-02-13T16:35:54;30.08;;;15.83;;
23001;SDS011;11667;51.706;4.856;2023-02-13T16:38:27;29.52;;;15.28;;
23001;SDS011;11667;51.706;4.856;2023-02-13T16:40:59;32.50;;;14.78;;
23001;SDS011;11667;51.706;4.856;2023-02-13T16:43:37;30.92;;;15.90;;
23001;SDS011;11667;51.706;4.856;2023-02-13T16:51:41;29.50;;;15.88;;
23001;SDS011;11667;51.706;4.856;2023-02-13T17:02:26;30.48;;;14.55;;
23001;SDS011;11667;51.706;4.856;2023-02-13T17:04:57;29.48;;;15.35;;
23001;SDS011;11667;51.706;4.856;2023-02-13T17:07:54;30.00;;;15.35;;
23001;SDS011;11667;51.706;4.856;2023-02-13T17:10:09;26.55;;;14.83;;
23001;SDS011;11667;51.706;4.856;2023-02-13T17:15:09;29.35;;;16.23;;
23001;SDS011;11667;51.706;4.856;2023-02-13T17:17:40;33.92;;;17.48;;
23001;SDS011;11667;51.706;4.856;2023-02-13T17:20:22;31.82;;;17.60;;
23001;SDS011;11667;51.706;4.856;2023-02-13T17:22:45;39.63;;;20.20;;
23001;SDS011;11667;51.706;4.856;2023-02-13T17:25:19;59.42;;;26.12;;
23001;SDS011;11667;51.706;4.856;2023-02-13T17:27:50;30.95;;;16.23;;
23001;SDS011;11667;51.706;4.856;2023-02-13T17:30:22;39.18;;;17.52;;
23001;SDS011;11667;51.706;4.856;2023-02-13T17:32:57;35.15;;;16.73;;
23001;SDS011;11667;51.706;4.856;2023-02-13T17:35:29;33.10;;;16.37;;
23001;SDS011;11667;51.706;4.856;2023-02-13T17:37:58;37.03;;;16.50;;
23001;SDS011;11667;51.706;4.856;2023-02-13T17:40:28;36.35;;;16.90;;
23001;SDS011;11667;51.706;4.856;2023-02-13T17:42:58;37.23;;;17.85;;
23001;SDS011;11667;51.706;4.856;2023-02-13T17:45:30;43.23;;;18.65;;
23001;SDS011;11667;51.706;4.856;2023-02-13T17:48:00;35.68;;;17.37;;
23001;SDS011;11667;51.706;4.856;2023-02-13T17:50:31;36.80;;;17.70;;
23001;SDS011;11667;51.706;4.856;2023-02-13T17:53:20;37.53;;;17.20;;
23001;SDS011;11667;51.706;4.856;2023-02-13T17:55:33;35.13;;;17.40;;
23001;SDS011;11667;51.706;4.856;2023-02-13T17:58:03;34.05;;;16.67;;
23001;SDS011;11667;51.706;4.856;2023-02-13T18:00:32;35.55;;;16.90;;